ADDS METAR Data INFO
IDs: Format: Raw Decoded Include TAF

Data at: 1909 UTC 23 Apr 2018

KUYF 231855Z AUTO 15008KT 10SM -RA BKN046 OVC060 15/13 A3017 RMK AO2
KUYF 231835Z AUTO 16007KT 10SM -RA BKN050 OVC060 15/12 A3017 RMK AO2
KUYF 231815Z AUTO 18010KT 10SM DZ OVC050 16/11 A3017 RMK AO2
KUYF 231755Z AUTO 18010G15KT 10SM OVC060 17/08 A3016 RMK AO2
KUYF 231735Z AUTO 16009G18KT 10SM OVC050 18/08 A3017 RMK AO2
KUYF 231715Z AUTO 16015G19KT 10SM SCT047 OVC060 18/07 A3017 RMK AO2
KUYF 231655Z AUTO 14014G21KT 10SM BKN060 OVC070 19/07 A3017 RMK AO2
KUYF 231635Z AUTO 13017KT 10SM BKN060 BKN070 21/07 A3016 RMK AO2
KUYF 231615Z AUTO 14013KT 10SM CLR 20/07 A3016 RMK AO2
KUYF 231555Z AUTO 13015G21KT 10SM CLR 20/07 A3016 RMK AO2
KUYF 231535Z AUTO 11015G20KT 10SM CLR 20/06 A3016 RMK AO2
KUYF 231515Z AUTO 12016G21KT 10SM CLR 20/07 A3016 RMK AO2
KUYF 231455Z AUTO 12013KT 10SM CLR 18/06 A3016 RMK AO2
KUYF 231435Z AUTO 12013G19KT 10SM CLR 18/06 A3017 RMK AO2
KUYF 231415Z AUTO 12014G20KT 10SM CLR 17/05 A3017 RMK AO2
KUYF 231355Z AUTO 12016G19KT 10SM CLR 17/05 A3018 RMK AO2
KUYF 231335Z AUTO 11013G20KT 10SM CLR 16/05 A3017 RMK AO2
KUYF 231315Z AUTO 11010KT 10SM CLR 16/05 A3018 RMK AO2
KUYF 231255Z AUTO 11011G16KT 10SM CLR 15/05 A3018 RMK AO2
KUYF 231235Z AUTO 10010KT 10SM CLR 13/04 A3018 RMK AO2
KUYF 231215Z AUTO 09007KT 10SM CLR 12/04 A3018 RMK AO2
KUYF 231155Z AUTO 07005KT 10SM CLR 10/03 A3018 RMK AO2
KUYF 231135Z AUTO 05004KT 10SM CLR 08/02 A3018 RMK AO2
KUYF 231115Z AUTO 03005KT 10SM CLR 07/02 A3017 RMK AO2
KUYF 231055Z AUTO 04005KT 10SM CLR 07/01 A3015 RMK AO2
KUYF 231035Z AUTO 03006KT 10SM CLR 06/01 A3015 RMK AO2
KUYF 231015Z AUTO 04005KT 10SM CLR 07/01 A3015 RMK AO2
KUYF 230955Z AUTO 04005KT 10SM CLR 07/01 A3014 RMK AO2
KUYF 230935Z AUTO 03006KT 10SM CLR 07/01 A3014 RMK AO2
KUYF 230915Z AUTO 03005KT 10SM CLR 07/00 A3014 RMK AO2
KUYF 230855Z AUTO 02007KT 10SM CLR 07/01 A3014 RMK AO2
KUYF 230835Z AUTO 02006KT 10SM CLR 07/01 A3014 RMK AO2
KUYF 230815Z AUTO 01007KT 10SM CLR 07/00 A3015 RMK AO2
KUYF 230755Z AUTO 01007KT 10SM CLR 07/00 A3015 RMK AO2
KUYF 230735Z AUTO 01007KT 10SM CLR 07/00 A3015 RMK AO2
KUYF 230715Z AUTO 01008KT 10SM CLR 07/00 A3015 RMK AO2
KUYF 230655Z AUTO 01007KT 10SM CLR 08/01 A3015 RMK AO2
KUYF 230635Z AUTO 01007KT 10SM CLR 08/01 A3017 RMK AO2
KUYF 230615Z AUTO 36006KT 10SM CLR 08/01 A3017 RMK AO2
KUYF 230555Z AUTO 01007KT 10SM CLR 08/01 A3018 RMK AO2
KUYF 230535Z AUTO 01007KT 10SM CLR 08/01 A3018 RMK AO2
KUYF 230515Z AUTO 01005KT 10SM CLR 08/01 A3019 RMK AO2
KUYF 230455Z AUTO 01006KT 10SM CLR 08/02 A3019 RMK AO2
KUYF 230435Z AUTO 01006KT 10SM CLR 08/02 A3019 RMK AO2
KUYF 230415Z AUTO 01007KT 10SM CLR 09/02 A3019 RMK AO2
KUYF 230355Z AUTO 01007KT 10SM CLR 10/01 A3019 RMK AO2
KUYF 230335Z AUTO 01007KT 10SM CLR 10/01 A3019 RMK AO2
KUYF 230315Z AUTO 01008KT 10SM CLR 10/02 A3020 RMK AO2
KUYF 230255Z AUTO 36008KT 10SM CLR 11/01 A3020 RMK AO2
KUYF 230235Z AUTO 36008KT 10SM CLR 11/M01 A3020 RMK AO2
KUYF 230215Z AUTO 03005KT 10SM CLR 12/M02 A3021 RMK AO2
KUYF 230155Z AUTO 03005KT 10SM CLR 12/M02 A3021 RMK AO2
KUYF 230135Z AUTO 04006KT 10SM CLR 13/M02 A3021 RMK AO2
KUYF 230115Z AUTO 04008KT 10SM CLR 13/M02 A3020 RMK AO2
KUYF 230055Z AUTO 04006KT 10SM CLR 14/M02 A3021 RMK AO2
KUYF 230035Z AUTO 07003KT 10SM CLR 13/00 A3022 RMK AO2
KUYF 230015Z AUTO 06005KT 10SM CLR 15/M01 A3021 RMK AO2
KUYF 222355Z AUTO 05006KT 10SM CLR 16/M01 A3021 RMK AO2
KUYF 222335Z AUTO 06006KT 10SM CLR 17/M01 A3021 RMK AO2
KUYF 222315Z AUTO 06006KT 10SM CLR 17/M03 A3021 RMK AO2
KUYF 222255Z AUTO 06009KT 10SM CLR 18/M04 A3021 RMK AO2
KUYF 222235Z AUTO 06010KT 10SM CLR 18/M04 A3022 RMK AO2
KUYF 222215Z AUTO 07010KT 10SM CLR 19/M06 A3022 RMK AO2
KUYF 222155Z AUTO 07008KT 10SM CLR 19/M06 A3022 RMK AO2
KUYF 222135Z AUTO 08010KT 10SM CLR 19/M06 A3022 RMK AO2
KUYF 222055Z AUTO 06010G15KT 10SM CLR 20/M07 A3023 RMK AO2
KUYF 222035Z AUTO 07008G11KT 10SM CLR 19/M07 A3023 RMK AO2
KUYF 222015Z AUTO 05009KT 10SM CLR 19/M06 A3023 RMK AO2
KUYF 221955Z AUTO 06010KT 10SM CLR 18/M05 A3024 RMK AO2
KUYF 221915Z AUTO 07009KT 10SM CLR 20/M08 A3026 RMK AO2
KUYF 221855Z AUTO 06011G15KT 10SM CLR 18/M07 A3027 RMK AO2
KUYF 221835Z AUTO 07010KT 10SM CLR 18/M07 A3027 RMK AO2
KUYF 221815Z AUTO 05007KT 10SM CLR 18/M07 A3028 RMK AO2
KUYF 221755Z AUTO 04005KT 10SM CLR 18/M06 A3029 RMK AO2
KUYF 221735Z AUTO 07006KT 10SM CLR 17/M06 A3030 RMK AO2
KUYF 221715Z AUTO 05007KT 10SM CLR 17/M06 A3030 RMK AO2
KUYF 221655Z AUTO 07007KT 10SM CLR 17/M07 A3030 RMK AO2
KUYF 221635Z AUTO 06009KT 10SM CLR 16/M05 A3030 RMK AO2
KUYF 221555Z AUTO 07009KT 10SM CLR 15/M02 A3031 RMK AO2
KUYF 221535Z AUTO 06007KT 10SM CLR 14/M01 A3032 RMK AO2
KUYF 221515Z AUTO 05008KT 10SM CLR 13/00 A3032 RMK AO2
KUYF 221455Z AUTO 05007KT 10SM CLR 12/00 A3032 RMK AO2
KUYF 221435Z AUTO 04006KT 10SM CLR 11/00 A3032 RMK AO2
KUYF 221415Z AUTO 04005KT 10SM CLR 11/00 A3033 RMK AO2
KUYF 221355Z AUTO 03005KT 10SM CLR 10/00 A3033 RMK AO2
KUYF 221335Z AUTO 04005KT 10SM CLR 09/00 A3033 RMK AO2
KUYF 221315Z AUTO 03005KT 10SM CLR 08/00 A3034 RMK AO2
KUYF 221255Z AUTO 03005KT 10SM CLR 07/00 A3034 RMK AO2
KUYF 221235Z AUTO 02006KT 10SM CLR 07/00 A3034 RMK AO2
KUYF 221215Z AUTO 01006KT 10SM CLR 06/00 A3033 RMK AO2
KUYF 221155Z AUTO 02006KT 10SM CLR 06/00 A3033 RMK AO2
KUYF 221135Z AUTO 01005KT 10SM CLR 06/00 A3032 RMK AO2
KUYF 221115Z AUTO 01005KT 10SM CLR 05/00 A3032 RMK AO2
KUYF 221055Z AUTO 01007KT 10SM CLR 06/00 A3031 RMK AO2
KUYF 221035Z AUTO 01005KT 10SM CLR 06/00 A3030 RMK AO2
KUYF 221015Z AUTO 01005KT 10SM CLR 06/00 A3030 RMK AO2
KUYF 220955Z AUTO 02005KT 10SM CLR 06/00 A3030 RMK AO2
KUYF 220935Z AUTO 01005KT 10SM CLR 06/M01 A3030 RMK AO2
KUYF 220915Z AUTO 36006KT 10SM CLR 06/M01 A3030 RMK AO2
KUYF 220855Z AUTO 02005KT 10SM CLR 06/00 A3030 RMK AO2
KUYF 220835Z AUTO 01005KT 10SM SCT090 06/00 A3030 RMK AO2
KUYF 220815Z AUTO 02006KT 10SM BKN090 05/00 A3031 RMK AO2
KUYF 220755Z AUTO 01005KT 10SM OVC090 06/M01 A3031 RMK AO2
KUYF 220735Z AUTO 01005KT 10SM BKN090 06/00 A3032 RMK AO2
KUYF 220715Z AUTO 01005KT 10SM BKN090 06/M01 A3031 RMK AO2